createdAt,value
2022-11-24T00:00:54.643Z,82.98
2022-11-24T00:11:08.076Z,83.38
2022-11-24T00:21:11.180Z,83.21
2022-11-24T00:31:19.575Z,82.86
2022-11-24T00:41:23.318Z,83.00
2022-11-24T00:51:28.375Z,83.28
2022-11-24T01:01:31.642Z,82.93
2022-11-24T01:11:54.515Z,83.21
2022-11-24T01:21:57.138Z,82.65
2022-11-24T01:31:59.827Z,83.23
2022-11-24T01:42:02.430Z,82.90
2022-11-24T01:52:11.630Z,83.75
2022-11-24T02:02:14.870Z,83.33
2022-11-24T02:12:17.797Z,82.98
2022-11-24T02:22:23.101Z,83.47
2022-11-24T02:32:25.858Z,82.91
2022-11-24T02:42:34.432Z,82.69
2022-11-24T02:52:37.058Z,82.24
2022-11-24T03:02:40.785Z,82.18
2022-11-24T03:12:43.552Z,82.68
2022-11-24T03:22:46.149Z,83.65
2022-11-24T03:32:48.737Z,83.43
2022-11-24T03:42:51.323Z,83.70
2022-11-24T03:52:53.955Z,83.26
2022-11-24T04:02:56.587Z,83.22
2022-11-24T04:12:59.276Z,83.68
2022-11-24T04:23:02.689Z,83.87
2022-11-24T04:33:05.275Z,84.06
2022-11-24T04:43:07.817Z,84.44
2022-11-24T04:53:11.744Z,84.00
2022-11-24T05:03:14.309Z,84.41
2022-11-24T05:13:17.135Z,83.62
2022-11-24T05:23:19.627Z,83.24
2022-11-24T05:33:23.306Z,82.66
2022-11-24T05:43:25.853Z,82.51
2022-11-24T05:53:28.416Z,84.41
2022-11-24T06:03:30.667Z,84.55
2022-11-24T06:13:33.009Z,84.26
2022-11-24T06:23:35.952Z,84.62
2022-11-24T06:33:38.883Z,84.52
2022-11-24T06:43:41.761Z,84.86
2022-11-24T06:53:43.983Z,84.61
2022-11-24T07:03:48.250Z,84.50
2022-11-24T07:13:59.720Z,84.33
2022-11-24T07:24:02.786Z,84.53
2022-11-24T07:34:05.366Z,83.68
2022-11-24T07:44:07.619Z,84.00
2022-11-24T07:54:10.105Z,83.93
2022-11-24T08:04:12.754Z,83.87
2022-11-24T08:14:15.057Z,84.54
2022-11-24T08:24:17.505Z,82.51
2022-11-24T08:34:19.940Z,82.42
2022-11-24T08:44:22.254Z,82.65
2022-11-24T08:54:25.775Z,82.34
2022-11-24T09:04:28.082Z,80.23
2022-11-24T09:14:30.286Z,80.86
2022-11-24T09:24:32.549Z,79.97
2022-11-24T09:34:34.964Z,79.26
2022-11-24T09:45:05.725Z,79.53
2022-11-24T09:55:40.596Z,79.63
2022-11-24T10:05:43.473Z,78.40
2022-11-24T10:15:52.314Z,77.48
2022-11-24T10:25:59.687Z,79.07
2022-11-24T10:36:13.969Z,77.10
2022-11-24T10:46:24.436Z,74.67
2022-11-24T10:56:26.832Z,74.57
2022-11-24T11:06:31.273Z,75.07
2022-11-24T11:16:48.537Z,75.61
2022-11-24T11:27:04.050Z,74.88
2022-11-24T11:37:07.385Z,72.38
2022-11-24T11:47:33.797Z,71.32
2022-11-24T11:57:46.526Z,68.30
2022-11-24T12:08:07.979Z,71.44
2022-11-24T12:29:36.466Z,69.38
2022-11-24T12:39:58.688Z,69.64
2022-11-24T12:50:06.502Z,71.19
2022-11-24T13:00:36.785Z,73.75
2022-11-24T13:10:54.863Z,72.80
2022-11-24T13:20:58.368Z,71.72
2022-11-24T13:31:11.469Z,72.18
2022-11-24T13:41:32.020Z,72.73
2022-11-24T13:51:34.230Z,72.60
2022-11-24T14:01:40.855Z,72.88
2022-11-24T14:11:44.436Z,74.32
2022-11-24T14:21:46.765Z,75.85
2022-11-24T14:32:00.817Z,77.13
2022-11-24T14:42:24.759Z,78.11
2022-11-24T14:52:27.027Z,78.26
2022-11-24T15:02:41.395Z,78.38
2022-11-24T15:12:51.484Z,78.68
2022-11-24T15:23:22.126Z,79.00
2022-11-24T15:33:24.363Z,79.66
2022-11-24T15:43:34.295Z,79.64
2022-11-24T15:53:40.086Z,80.75
2022-11-24T16:03:47.296Z,80.75
2022-11-24T16:13:53.439Z,80.69
2022-11-24T16:23:56.247Z,81.40
2022-11-24T16:33:58.563Z,81.04
2022-11-24T16:44:00.902Z,81.48
2022-11-24T16:54:03.895Z,81.38
2022-11-24T17:04:12.276Z,82.34
2022-11-24T17:14:14.956Z,81.36
2022-11-24T17:24:18.297Z,81.72
2022-11-24T17:34:20.706Z,81.67
2022-11-24T17:44:23.010Z,82.00
2022-11-24T17:54:45.495Z,82.20
2022-11-24T18:04:47.641Z,82.09
2022-11-24T18:14:49.831Z,82.31
2022-11-24T18:24:52.180Z,82.49
2022-11-24T18:34:54.350Z,82.17
2022-11-24T18:44:57.357Z,82.41
2022-11-24T18:55:04.019Z,82.35
2022-11-24T19:05:06.361Z,82.98
2022-11-24T19:15:09.058Z,82.90
2022-11-24T19:25:11.317Z,82.48
2022-11-24T19:35:13.592Z,82.90
2022-11-24T19:45:15.849Z,82.57
2022-11-24T19:55:18.075Z,83.58
2022-11-24T20:05:20.341Z,83.73
2022-11-24T20:15:22.576Z,83.86
2022-11-24T20:25:24.998Z,83.85
2022-11-24T20:35:27.220Z,83.53
2022-11-24T20:45:29.949Z,83.51
2022-11-24T20:55:33.749Z,83.53
2022-11-24T21:05:35.983Z,83.41
2022-11-24T21:15:38.180Z,83.94
2022-11-24T21:25:40.749Z,83.66
2022-11-24T21:40:10.455Z,84.07
2022-11-24T21:50:12.994Z,84.10
2022-11-24T22:00:15.950Z,83.28
2022-11-24T22:10:18.258Z,83.79
2022-11-24T22:20:20.402Z,84.17
2022-11-24T22:30:22.853Z,84.33
2022-11-24T22:40:25.029Z,84.17
2022-11-24T22:50:27.190Z,83.49
2022-11-24T23:00:29.463Z,84.52
2022-11-24T23:10:31.735Z,84.71
2022-11-24T23:20:35.046Z,84.20
2022-11-24T23:30:37.315Z,84.38
2022-11-24T23:40:39.580Z,83.93
2022-11-24T23:50:41.913Z,84.34
